sensor_id;sensor_type;location;lat;lon;timestamp;temperature;humidity
22290;DHT22;11313;50.116;8.424;2023-10-19T00:02:06;22.20;56.50
22290;DHT22;11313;50.116;8.424;2023-10-19T00:04:32;22.20;56.60
22290;DHT22;11313;50.116;8.424;2023-10-19T00:07:00;22.20;56.60
22290;DHT22;11313;50.116;8.424;2023-10-19T00:09:26;22.20;56.60
22290;DHT22;11313;50.116;8.424;2023-10-19T00:11:56;22.20;56.60
22290;DHT22;11313;50.116;8.424;2023-10-19T00:14:23;22.20;56.60
22290;DHT22;11313;50.116;8.424;2023-10-19T00:16:51;22.20;56.60
22290;DHT22;11313;50.116;8.424;2023-10-19T00:19:18;22.20;56.60
22290;DHT22;11313;50.116;8.424;2023-10-19T00:21:47;22.20;56.60
22290;DHT22;11313;50.116;8.424;2023-10-19T00:24:18;22.20;56.60
22290;DHT22;11313;50.116;8.424;2023-10-19T00:26:47;22.20;56.60
22290;DHT22;11313;50.116;8.424;2023-10-19T00:29:14;22.20;56.60
22290;DHT22;11313;50.116;8.424;2023-10-19T00:31:56;22.20;56.60
22290;DHT22;11313;50.116;8.424;2023-10-19T00:34:22;22.20;56.60
22290;DHT22;11313;50.116;8.424;2023-10-19T00:36:49;22.20;56.60
22290;DHT22;11313;50.116;8.424;2023-10-19T00:39:16;22.20;56.60
22290;DHT22;11313;50.116;8.424;2023-10-19T00:41:46;22.20;56.60
22290;DHT22;11313;50.116;8.424;2023-10-19T00:44:13;22.20;56.60
22290;DHT22;11313;50.116;8.424;2023-10-19T00:46:47;22.20;56.60
22290;DHT22;11313;50.116;8.424;2023-10-19T00:49:18;22.20;56.60
22290;DHT22;11313;50.116;8.424;2023-10-19T00:51:51;22.20;56.60
22290;DHT22;11313;50.116;8.424;2023-10-19T00:54:23;22.20;56.60
22290;DHT22;11313;50.116;8.424;2023-10-19T00:56:57;22.10;56.50
22290;DHT22;11313;50.116;8.424;2023-10-19T00:59:25;22.20;56.60
22290;DHT22;11313;50.116;8.424;2023-10-19T01:01:55;22.20;56.60
22290;DHT22;11313;50.116;8.424;2023-10-19T01:04:42;22.20;56.60
22290;DHT22;11313;50.116;8.424;2023-10-19T01:07:09;22.20;56.60
22290;DHT22;11313;50.116;8.424;2023-10-19T01:09:47;22.20;56.60
22290;DHT22;11313;50.116;8.424;2023-10-19T01:12:13;22.20;56.60
22290;DHT22;11313;50.116;8.424;2023-10-19T01:15:09;22.20;56.60
22290;DHT22;11313;50.116;8.424;2023-10-19T01:17:49;22.20;56.60
22290;DHT22;11313;50.116;8.424;2023-10-19T01:20:20;22.20;56.60
22290;DHT22;11313;50.116;8.424;2023-10-19T01:22:59;22.20;56.60
22290;DHT22;11313;50.116;8.424;2023-10-19T01:25:52;22.20;56.60
22290;DHT22;11313;50.116;8.424;2023-10-19T01:28:22;22.20;56.50
22290;DHT22;11313;50.116;8.424;2023-10-19T01:30:51;22.20;56.60
22290;DHT22;11313;50.116;8.424;2023-10-19T01:33:20;22.20;56.60
22290;DHT22;11313;50.116;8.424;2023-10-19T01:35:46;22.20;56.50
22290;DHT22;11313;50.116;8.424;2023-10-19T01:38:31;22.20;56.50
22290;DHT22;11313;50.116;8.424;2023-10-19T01:41:00;22.20;56.50
22290;DHT22;11313;50.116;8.424;2023-10-19T01:43:27;22.20;56.50
22290;DHT22;11313;50.116;8.424;2023-10-19T01:45:57;22.30;56.50
22290;DHT22;11313;50.116;8.424;2023-10-19T01:48:23;22.30;56.50
22290;DHT22;11313;50.116;8.424;2023-10-19T01:50:59;22.30;56.50
22290;DHT22;11313;50.116;8.424;2023-10-19T01:53:25;22.30;56.50
22290;DHT22;11313;50.116;8.424;2023-10-19T01:55:51;22.30;56.50
22290;DHT22;11313;50.116;8.424;2023-10-19T01:58:26;22.30;56.40
22290;DHT22;11313;50.116;8.424;2023-10-19T02:00:53;22.30;56.40
22290;DHT22;11313;50.116;8.424;2023-10-19T02:03:26;22.30;56.40
22290;DHT22;11313;50.116;8.424;2023-10-19T02:06:00;22.30;56.40
22290;DHT22;11313;50.116;8.424;2023-10-19T02:08:31;22.30;56.40
22290;DHT22;11313;50.116;8.424;2023-10-19T02:10:56;22.30;56.40
22290;DHT22;11313;50.116;8.424;2023-10-19T02:13:23;22.30;56.30
22290;DHT22;11313;50.116;8.424;2023-10-19T02:15:48;22.40;56.40
22290;DHT22;11313;50.116;8.424;2023-10-19T02:18:15;22.40;56.40
22290;DHT22;11313;50.116;8.424;2023-10-19T02:20:42;22.40;56.40
22290;DHT22;11313;50.116;8.424;2023-10-19T02:23:13;22.40;56.40
22290;DHT22;11313;50.116;8.424;2023-10-19T02:25:39;22.40;56.30
22290;DHT22;11313;50.116;8.424;2023-10-19T02:28:05;22.40;56.40
22290;DHT22;11313;50.116;8.424;2023-10-19T02:30:35;22.40;56.30
22290;DHT22;11313;50.116;8.424;2023-10-19T02:33:01;22.40;56.40
22290;DHT22;11313;50.116;8.424;2023-10-19T02:35:28;22.40;56.40
22290;DHT22;11313;50.116;8.424;2023-10-19T02:37:54;22.40;56.30
22290;DHT22;11313;50.116;8.424;2023-10-19T02:40:19;22.40;56.30
22290;DHT22;11313;50.116;8.424;2023-10-19T02:42:46;22.40;56.30
22290;DHT22;11313;50.116;8.424;2023-10-19T02:45:19;22.40;56.30
22290;DHT22;11313;50.116;8.424;2023-10-19T02:47:45;22.40;56.30
22290;DHT22;11313;50.116;8.424;2023-10-19T02:50:11;22.40;56.30
22290;DHT22;11313;50.116;8.424;2023-10-19T02:52:42;22.40;56.30
22290;DHT22;11313;50.116;8.424;2023-10-19T02:55:09;22.40;56.30
22290;DHT22;11313;50.116;8.424;2023-10-19T02:57:36;22.40;56.20
22290;DHT22;11313;50.116;8.424;2023-10-19T03:00:02;22.40;56.90
22290;DHT22;11313;50.116;8.424;2023-10-19T03:02:34;22.40;56.20
22290;DHT22;11313;50.116;8.424;2023-10-19T03:05:01;22.40;56.20
22290;DHT22;11313;50.116;8.424;2023-10-19T03:07:34;22.40;56.30
22290;DHT22;11313;50.116;8.424;2023-10-19T03:10:00;22.40;56.20
22290;DHT22;11313;50.116;8.424;2023-10-19T03:12:27;22.40;56.30
22290;DHT22;11313;50.116;8.424;2023-10-19T03:14:53;22.40;56.20
22290;DHT22;11313;50.116;8.424;2023-10-19T03:17:18;22.40;56.20
22290;DHT22;11313;50.116;8.424;2023-10-19T03:19:44;22.40;56.30
22290;DHT22;11313;50.116;8.424;2023-10-19T03:22:09;22.40;56.20
22290;DHT22;11313;50.116;8.424;2023-10-19T03:24:36;22.40;56.30
22290;DHT22;11313;50.116;8.424;2023-10-19T03:27:13;22.40;56.20
22290;DHT22;11313;50.116;8.424;2023-10-19T03:29:48;22.40;56.20
22290;DHT22;11313;50.116;8.424;2023-10-19T03:32:19;22.40;56.20
22290;DHT22;11313;50.116;8.424;2023-10-19T03:34:52;22.40;56.20
22290;DHT22;11313;50.116;8.424;2023-10-19T03:37:24;22.40;56.20
22290;DHT22;11313;50.116;8.424;2023-10-19T03:39:51;22.40;56.30
22290;DHT22;11313;50.116;8.424;2023-10-19T03:42:17;22.40;56.20
22290;DHT22;11313;50.116;8.424;2023-10-19T03:44:42;22.40;56.20
22290;DHT22;11313;50.116;8.424;2023-10-19T03:47:08;22.40;56.20
22290;DHT22;11313;50.116;8.424;2023-10-19T03:49:37;22.40;56.20
22290;DHT22;11313;50.116;8.424;2023-10-19T03:52:07;22.40;56.30
22290;DHT22;11313;50.116;8.424;2023-10-19T03:54:36;22.40;56.20
22290;DHT22;11313;50.116;8.424;2023-10-19T03:57:14;22.40;56.20
22290;DHT22;11313;50.116;8.424;2023-10-19T03:59:45;22.40;56.20
22290;DHT22;11313;50.116;8.424;2023-10-19T04:02:11;22.40;56.20
22290;DHT22;11313;50.116;8.424;2023-10-19T04:04:41;22.40;56.20
22290;DHT22;11313;50.116;8.424;2023-10-19T04:07:13;22.40;56.20
22290;DHT22;11313;50.116;8.424;2023-10-19T04:09:50;22.40;56.20
22290;DHT22;11313;50.116;8.424;2023-10-19T04:12:35;22.40;56.20
22290;DHT22;11313;50.116;8.424;2023-10-19T04:15:03;22.40;56.30
22290;DHT22;11313;50.116;8.424;2023-10-19T04:17:36;22.40;56.30
22290;DHT22;11313;50.116;8.424;2023-10-19T04:20:02;22.40;56.30
22290;DHT22;11313;50.116;8.424;2023-10-19T04:22:38;22.40;56.30
22290;DHT22;11313;50.116;8.424;2023-10-19T04:25:04;22.40;56.30
22290;DHT22;11313;50.116;8.424;2023-10-19T04:27:31;22.40;56.30
22290;DHT22;11313;50.116;8.424;2023-10-19T04:30:01;22.40;56.30
22290;DHT22;11313;50.116;8.424;2023-10-19T04:32:27;22.40;56.30
22290;DHT22;11313;50.116;8.424;2023-10-19T04:34:53;22.40;56.30
22290;DHT22;11313;50.116;8.424;2023-10-19T04:37:18;22.40;56.30
22290;DHT22;11313;50.116;8.424;2023-10-19T04:39:47;22.40;56.30
22290;DHT22;11313;50.116;8.424;2023-10-19T04:42:15;22.40;56.30
22290;DHT22;11313;50.116;8.424;2023-10-19T04:44:40;22.40;56.30
22290;DHT22;11313;50.116;8.424;2023-10-19T04:47:06;22.40;56.30
22290;DHT22;11313;50.116;8.424;2023-10-19T04:49:31;22.40;56.30
22290;DHT22;11313;50.116;8.424;2023-10-19T04:51:57;22.40;56.40
22290;DHT22;11313;50.116;8.424;2023-10-19T04:54:22;22.40;56.30
22290;DHT22;11313;50.116;8.424;2023-10-19T04:56:48;22.40;56.40
22290;DHT22;11313;50.116;8.424;2023-10-19T04:59:13;22.40;56.40
22290;DHT22;11313;50.116;8.424;2023-10-19T05:01:39;22.40;56.30
22290;DHT22;11313;50.116;8.424;2023-10-19T05:04:06;22.40;56.30
22290;DHT22;11313;50.116;8.424;2023-10-19T05:06:31;22.40;56.30
22290;DHT22;11313;50.116;8.424;2023-10-19T05:08:57;22.40;56.40
22290;DHT22;11313;50.116;8.424;2023-10-19T05:11:22;22.40;56.30
22290;DHT22;11313;50.116;8.424;2023-10-19T05:13:48;22.40;56.40
22290;DHT22;11313;50.116;8.424;2023-10-19T05:16:13;22.40;56.40
22290;DHT22;11313;50.116;8.424;2023-10-19T05:18:39;22.40;56.40
22290;DHT22;11313;50.116;8.424;2023-10-19T05:21:04;22.40;56.30
22290;DHT22;11313;50.116;8.424;2023-10-19T05:23:30;22.40;56.40
22290;DHT22;11313;50.116;8.424;2023-10-19T05:26:03;22.40;56.30
22290;DHT22;11313;50.116;8.424;2023-10-19T05:28:30;22.40;56.30
22290;DHT22;11313;50.116;8.424;2023-10-19T05:30:55;22.40;56.40
22290;DHT22;11313;50.116;8.424;2023-10-19T05:33:21;22.40;56.40
22290;DHT22;11313;50.116;8.424;2023-10-19T05:35:49;22.40;56.40
22290;DHT22;11313;50.116;8.424;2023-10-19T05:38:15;22.40;56.70
22290;DHT22;11313;50.116;8.424;2023-10-19T05:40:41;22.40;56.40
22290;DHT22;11313;50.116;8.424;2023-10-19T05:43:08;22.40;56.40
22290;DHT22;11313;50.116;8.424;2023-10-19T05:45:34;22.40;56.40
22290;DHT22;11313;50.116;8.424;2023-10-19T05:48:01;22.40;56.40
22290;DHT22;11313;50.116;8.424;2023-10-19T05:50:29;22.40;56.40
22290;DHT22;11313;50.116;8.424;2023-10-19T05:52:55;22.40;56.40
22290;DHT22;11313;50.116;8.424;2023-10-19T05:55:21;22.40;56.40
22290;DHT22;11313;50.116;8.424;2023-10-19T05:57:49;22.40;56.50
22290;DHT22;11313;50.116;8.424;2023-10-19T06:00:15;22.40;56.40
22290;DHT22;11313;50.116;8.424;2023-10-19T06:02:43;22.40;56.40
22290;DHT22;11313;50.116;8.424;2023-10-19T06:05:13;22.40;56.40
22290;DHT22;11313;50.116;8.424;2023-10-19T06:07:45;22.40;56.40
22290;DHT22;11313;50.116;8.424;2023-10-19T06:10:12;22.40;56.40
22290;DHT22;11313;50.116;8.424;2023-10-19T06:12:49;22.40;56.50
22290;DHT22;11313;50.116;8.424;2023-10-19T06:15:17;22.30;56.40
22290;DHT22;11313;50.116;8.424;2023-10-19T06:17:43;22.30;56.40
22290;DHT22;11313;50.116;8.424;2023-10-19T06:20:10;22.30;56.40
22290;DHT22;11313;50.116;8.424;2023-10-19T06:22:48;22.30;56.40
22290;DHT22;11313;50.116;8.424;2023-10-19T06:25:20;22.30;56.40
22290;DHT22;11313;50.116;8.424;2023-10-19T06:27:47;22.30;56.40
22290;DHT22;11313;50.116;8.424;2023-10-19T06:30:14;22.30;56.40
22290;DHT22;11313;50.116;8.424;2023-10-19T06:32:44;22.30;56.50
22290;DHT22;11313;50.116;8.424;2023-10-19T06:35:10;22.30;56.50
22290;DHT22;11313;50.116;8.424;2023-10-19T06:37:36;22.30;56.40
22290;DHT22;11313;50.116;8.424;2023-10-19T06:40:02;22.30;56.50
22290;DHT22;11313;50.116;8.424;2023-10-19T06:42:27;22.30;56.50
22290;DHT22;11313;50.116;8.424;2023-10-19T06:44:53;22.30;56.50
22290;DHT22;11313;50.116;8.424;2023-10-19T06:47:21;22.30;56.50
22290;DHT22;11313;50.116;8.424;2023-10-19T06:49:48;22.30;56.50
22290;DHT22;11313;50.116;8.424;2023-10-19T06:52:13;22.30;56.50
22290;DHT22;11313;50.116;8.424;2023-10-19T06:54:41;22.30;56.50
22290;DHT22;11313;50.116;8.424;2023-10-19T06:57:07;22.30;56.50
22290;DHT22;11313;50.116;8.424;2023-10-19T06:59:35;22.30;56.50
22290;DHT22;11313;50.116;8.424;2023-10-19T07:02:00;22.30;56.50
22290;DHT22;11313;50.116;8.424;2023-10-19T07:04:27;22.30;57.10
22290;DHT22;11313;50.116;8.424;2023-10-19T07:06:53;22.30;56.50
22290;DHT22;11313;50.116;8.424;2023-10-19T07:09:19;22.30;56.50
22290;DHT22;11313;50.116;8.424;2023-10-19T07:11:44;22.30;56.50
22290;DHT22;11313;50.116;8.424;2023-10-19T07:14:11;22.30;56.50
22290;DHT22;11313;50.116;8.424;2023-10-19T07:16:39;22.30;56.50
22290;DHT22;11313;50.116;8.424;2023-10-19T07:19:04;22.30;56.50
22290;DHT22;11313;50.116;8.424;2023-10-19T07:21:30;22.30;56.50
22290;DHT22;11313;50.116;8.424;2023-10-19T07:24:01;22.30;56.50
22290;DHT22;11313;50.116;8.424;2023-10-19T07:26:30;22.30;56.50
22290;DHT22;11313;50.116;8.424;2023-10-19T07:29:02;22.40;56.50
22290;DHT22;11313;50.116;8.424;2023-10-19T07:31:27;22.40;56.50
22290;DHT22;11313;50.116;8.424;2023-10-19T07:33:53;22.30;56.50
22290;DHT22;11313;50.116;8.424;2023-10-19T07:36:22;22.30;56.50
22290;DHT22;11313;50.116;8.424;2023-10-19T07:38:50;22.30;56.50
22290;DHT22;11313;50.116;8.424;2023-10-19T07:41:17;22.30;56.50
22290;DHT22;11313;50.116;8.424;2023-10-19T07:43:42;22.40;56.50
22290;DHT22;11313;50.116;8.424;2023-10-19T07:46:09;22.30;56.50
22290;DHT22;11313;50.116;8.424;2023-10-19T07:48:37;22.30;56.40
22290;DHT22;11313;50.116;8.424;2023-10-19T07:51:03;22.30;56.50
22290;DHT22;11313;50.116;8.424;2023-10-19T07:53:29;22.30;56.50
22290;DHT22;11313;50.116;8.424;2023-10-19T07:55:55;22.30;56.50
22290;DHT22;11313;50.116;8.424;2023-10-19T07:58:22;22.30;56.50
22290;DHT22;11313;50.116;8.424;2023-10-19T08:00:48;22.30;56.50
22290;DHT22;11313;50.116;8.424;2023-10-19T08:03:13;22.30;56.50
22290;DHT22;11313;50.116;8.424;2023-10-19T08:05:41;22.30;56.50
22290;DHT22;11313;50.116;8.424;2023-10-19T08:08:07;22.30;56.40
22290;DHT22;11313;50.116;8.424;2023-10-19T08:10:33;22.30;56.50
22290;DHT22;11313;50.116;8.424;2023-10-19T08:13:02;22.30;56.50
22290;DHT22;11313;50.116;8.424;2023-10-19T08:15:27;22.30;56.50
22290;DHT22;11313;50.116;8.424;2023-10-19T08:17:55;22.30;56.50
22290;DHT22;11313;50.116;8.424;2023-10-19T08:20:22;22.30;56.50
22290;DHT22;11313;50.116;8.424;2023-10-19T08:22:56;22.30;56.50
22290;DHT22;11313;50.116;8.424;2023-10-19T08:25:23;22.30;56.50
22290;DHT22;11313;50.116;8.424;2023-10-19T08:27:49;22.30;56.50
22290;DHT22;11313;50.116;8.424;2023-10-19T08:30:19;22.30;56.50
22290;DHT22;11313;50.116;8.424;2023-10-19T08:32:46;22.30;56.50
22290;DHT22;11313;50.116;8.424;2023-10-19T08:35:16;22.30;56.50
22290;DHT22;11313;50.116;8.424;2023-10-19T08:37:45;22.30;56.50
22290;DHT22;11313;50.116;8.424;2023-10-19T08:40:12;22.30;56.50
22290;DHT22;11313;50.116;8.424;2023-10-19T08:42:42;22.30;56.50
22290;DHT22;11313;50.116;8.424;2023-10-19T08:45:09;22.30;56.50
22290;DHT22;11313;50.116;8.424;2023-10-19T08:47:41;22.30;56.50
22290;DHT22;11313;50.116;8.424;2023-10-19T08:50:08;22.30;56.50
22290;DHT22;11313;50.116;8.424;2023-10-19T08:52:36;22.30;56.50
22290;DHT22;11313;50.116;8.424;2023-10-19T08:55:01;22.30;56.50
22290;DHT22;11313;50.116;8.424;2023-10-19T08:57:27;22.30;56.50
22290;DHT22;11313;50.116;8.424;2023-10-19T08:59:54;22.30;56.50
22290;DHT22;11313;50.116;8.424;2023-10-19T09:02:23;22.30;56.50
22290;DHT22;11313;50.116;8.424;2023-10-19T09:04:49;22.30;56.50
22290;DHT22;11313;50.116;8.424;2023-10-19T09:07:16;22.30;56.50
22290;DHT22;11313;50.116;8.424;2023-10-19T09:09:42;22.30;56.50
22290;DHT22;11313;50.116;8.424;2023-10-19T09:12:07;22.30;56.50
22290;DHT22;11313;50.116;8.424;2023-10-19T09:14:36;22.30;56.50
22290;DHT22;11313;50.116;8.424;2023-10-19T09:17:07;22.30;56.50
22290;DHT22;11313;50.116;8.424;2023-10-19T09:19:43;22.30;56.50
22290;DHT22;11313;50.116;8.424;2023-10-19T09:22:10;22.30;56.50
22290;DHT22;11313;50.116;8.424;2023-10-19T09:24:44;22.30;56.50
22290;DHT22;11313;50.116;8.424;2023-10-19T09:27:10;22.30;57.10
22290;DHT22;11313;50.116;8.424;2023-10-19T09:29:36;22.40;56.60
22290;DHT22;11313;50.116;8.424;2023-10-19T09:32:03;22.40;56.60
22290;DHT22;11313;50.116;8.424;2023-10-19T09:34:30;22.40;56.60
22290;DHT22;11313;50.116;8.424;2023-10-19T09:37:00;22.40;56.60
22290;DHT22;11313;50.116;8.424;2023-10-19T09:39:29;22.30;56.50
22290;DHT22;11313;50.116;8.424;2023-10-19T09:42:00;22.30;56.50
22290;DHT22;11313;50.116;8.424;2023-10-19T09:44:32;22.30;56.50
22290;DHT22;11313;50.116;8.424;2023-10-19T09:47:01;22.30;57.10
22290;DHT22;11313;50.116;8.424;2023-10-19T09:49:29;22.40;56.70
22290;DHT22;11313;50.116;8.424;2023-10-19T09:51:55;22.30;56.50
22290;DHT22;11313;50.116;8.424;2023-10-19T09:54:27;22.30;56.50
22290;DHT22;11313;50.116;8.424;2023-10-19T09:57:07;22.30;56.50
22290;DHT22;11313;50.116;8.424;2023-10-19T09:59:39;22.30;56.50
22290;DHT22;11313;50.116;8.424;2023-10-19T10:02:08;22.30;56.50
22290;DHT22;11313;50.116;8.424;2023-10-19T10:04:36;22.30;56.50
22290;DHT22;11313;50.116;8.424;2023-10-19T10:07:01;22.40;56.60
22290;DHT22;11313;50.116;8.424;2023-10-19T10:09:31;22.40;56.60
22290;DHT22;11313;50.116;8.424;2023-10-19T10:12:25;22.30;56.50
22290;DHT22;11313;50.116;8.424;2023-10-19T10:17:37;22.40;56.60
22290;DHT22;11313;50.116;8.424;2023-10-19T10:22:41;22.30;56.50
22290;DHT22;11313;50.116;8.424;2023-10-19T10:25:28;22.30;56.50
22290;DHT22;11313;50.116;8.424;2023-10-19T10:27:55;22.40;56.60
22290;DHT22;11313;50.116;8.424;2023-10-19T10:30:21;22.40;56.60
22290;DHT22;11313;50.116;8.424;2023-10-19T10:32:49;22.40;56.60
22290;DHT22;11313;50.116;8.424;2023-10-19T10:38:03;22.40;56.60
22290;DHT22;11313;50.116;8.424;2023-10-19T10:40:31;22.40;56.60
22290;DHT22;11313;50.116;8.424;2023-10-19T10:43:07;22.40;56.60
22290;DHT22;11313;50.116;8.424;2023-10-19T10:45:33;22.40;56.60
22290;DHT22;11313;50.116;8.424;2023-10-19T10:47:58;22.40;56.60
22290;DHT22;11313;50.116;8.424;2023-10-19T10:50:26;22.40;56.60
22290;DHT22;11313;50.116;8.424;2023-10-19T10:52:53;22.40;56.60
22290;DHT22;11313;50.116;8.424;2023-10-19T10:55:23;22.40;56.60
22290;DHT22;11313;50.116;8.424;2023-10-19T10:57:50;22.40;56.60
22290;DHT22;11313;50.116;8.424;2023-10-19T11:00:16;22.40;56.60
22290;DHT22;11313;50.116;8.424;2023-10-19T11:02:43;22.40;56.60
22290;DHT22;11313;50.116;8.424;2023-10-19T11:05:11;22.40;56.60
22290;DHT22;11313;50.116;8.424;2023-10-19T11:07:38;22.40;56.70
22290;DHT22;11313;50.116;8.424;2023-10-19T11:10:04;22.40;56.70
22290;DHT22;11313;50.116;8.424;2023-10-19T11:12:31;22.30;56.60
22290;DHT22;11313;50.116;8.424;2023-10-19T11:14:58;22.30;56.60
22290;DHT22;11313;50.116;8.424;2023-10-19T11:17:24;22.40;56.70
22290;DHT22;11313;50.116;8.424;2023-10-19T11:19:59;22.40;56.70
22290;DHT22;11313;50.116;8.424;2023-10-19T11:22:25;22.40;56.80
22290;DHT22;11313;50.116;8.424;2023-10-19T11:24:52;22.40;56.70
22290;DHT22;11313;50.116;8.424;2023-10-19T11:27:28;22.40;56.60
22290;DHT22;11313;50.116;8.424;2023-10-19T11:29:58;22.40;56.70
22290;DHT22;11313;50.116;8.424;2023-10-19T11:32:25;22.40;56.60
22290;DHT22;11313;50.116;8.424;2023-10-19T11:34:56;22.40;56.70
22290;DHT22;11313;50.116;8.424;2023-10-19T11:37:22;22.40;56.60
22290;DHT22;11313;50.116;8.424;2023-10-19T11:39:48;22.40;56.60
22290;DHT22;11313;50.116;8.424;2023-10-19T11:42:16;22.40;56.70
22290;DHT22;11313;50.116;8.424;2023-10-19T11:44:43;22.40;56.70
22290;DHT22;11313;50.116;8.424;2023-10-19T11:47:09;22.40;56.60
22290;DHT22;11313;50.116;8.424;2023-10-19T11:49:35;22.40;56.70
22290;DHT22;11313;50.116;8.424;2023-10-19T11:52:05;22.40;56.70
22290;DHT22;11313;50.116;8.424;2023-10-19T11:54:31;22.40;56.70
22290;DHT22;11313;50.116;8.424;2023-10-19T11:56:56;22.40;56.70
22290;DHT22;11313;50.116;8.424;2023-10-19T11:59:22;22.40;56.70
22290;DHT22;11313;50.116;8.424;2023-10-19T12:01:48;22.40;56.70
22290;DHT22;11313;50.116;8.424;2023-10-19T12:04:14;22.40;56.80
22290;DHT22;11313;50.116;8.424;2023-10-19T12:06:39;22.40;56.70
22290;DHT22;11313;50.116;8.424;2023-10-19T12:09:05;22.40;56.70
22290;DHT22;11313;50.116;8.424;2023-10-19T12:11:40;22.40;56.70
22290;DHT22;11313;50.116;8.424;2023-10-19T12:14:06;22.40;56.80
22290;DHT22;11313;50.116;8.424;2023-10-19T12:16:36;22.40;56.80
22290;DHT22;11313;50.116;8.424;2023-10-19T12:19:02;22.40;56.80
22290;DHT22;11313;50.116;8.424;2023-10-19T12:21:28;22.40;56.70
22290;DHT22;11313;50.116;8.424;2023-10-19T12:23:56;22.40;56.80
22290;DHT22;11313;50.116;8.424;2023-10-19T12:26:22;22.40;56.80
22290;DHT22;11313;50.116;8.424;2023-10-19T12:28:48;22.40;56.80
22290;DHT22;11313;50.116;8.424;2023-10-19T12:31:14;22.40;56.80
22290;DHT22;11313;50.116;8.424;2023-10-19T12:33:40;22.40;56.70
22290;DHT22;11313;50.116;8.424;2023-10-19T12:36:07;22.40;56.80
22290;DHT22;11313;50.116;8.424;2023-10-19T12:38:51;22.40;56.80
22290;DHT22;11313;50.116;8.424;2023-10-19T12:41:19;22.30;56.70
22290;DHT22;11313;50.116;8.424;2023-10-19T12:43:44;22.40;56.80
22290;DHT22;11313;50.116;8.424;2023-10-19T12:46:11;22.40;56.80
22290;DHT22;11313;50.116;8.424;2023-10-19T12:48:39;22.40;56.80
22290;DHT22;11313;50.116;8.424;2023-10-19T12:51:05;22.30;56.70
22290;DHT22;11313;50.116;8.424;2023-10-19T12:53:32;22.40;56.80
22290;DHT22;11313;50.116;8.424;2023-10-19T12:55:59;22.40;56.80
22290;DHT22;11313;50.116;8.424;2023-10-19T12:58:25;22.30;56.80
22290;DHT22;11313;50.116;8.424;2023-10-19T13:00:53;22.40;56.80
22290;DHT22;11313;50.116;8.424;2023-10-19T13:03:19;22.40;56.80
22290;DHT22;11313;50.116;8.424;2023-10-19T13:05:45;22.40;56.80
22290;DHT22;11313;50.116;8.424;2023-10-19T13:08:12;22.40;56.80
22290;DHT22;11313;50.116;8.424;2023-10-19T13:10:42;22.30;56.70
22290;DHT22;11313;50.116;8.424;2023-10-19T13:13:10;22.30;56.80
22290;DHT22;11313;50.116;8.424;2023-10-19T13:15:37;22.30;56.80
22290;DHT22;11313;50.116;8.424;2023-10-19T13:18:05;22.40;56.80
22290;DHT22;11313;50.116;8.424;2023-10-19T13:20:35;22.40;56.90
22290;DHT22;11313;50.116;8.424;2023-10-19T13:23:02;22.30;56.80
22290;DHT22;11313;50.116;8.424;2023-10-19T13:25:34;22.30;56.80
22290;DHT22;11313;50.116;8.424;2023-10-19T13:28:16;22.30;56.80
22290;DHT22;11313;50.116;8.424;2023-10-19T13:30:50;22.40;56.90
22290;DHT22;11313;50.116;8.424;2023-10-19T13:33:17;22.30;56.80
22290;DHT22;11313;50.116;8.424;2023-10-19T13:35:44;22.30;56.70
22290;DHT22;11313;50.116;8.424;2023-10-19T13:38:11;22.30;56.80
22290;DHT22;11313;50.116;8.424;2023-10-19T13:40:40;22.30;56.80
22290;DHT22;11313;50.116;8.424;2023-10-19T13:43:07;22.30;56.80
22290;DHT22;11313;50.116;8.424;2023-10-19T13:45:34;22.40;56.90
22290;DHT22;11313;50.116;8.424;2023-10-19T13:48:01;22.30;56.80
22290;DHT22;11313;50.116;8.424;2023-10-19T13:50:28;22.30;56.80
22290;DHT22;11313;50.116;8.424;2023-10-19T13:52:55;22.40;56.90
22290;DHT22;11313;50.116;8.424;2023-10-19T13:55:22;22.40;56.90
22290;DHT22;11313;50.116;8.424;2023-10-19T13:57:48;22.30;56.80
22290;DHT22;11313;50.116;8.424;2023-10-19T14:00:15;22.30;56.80
22290;DHT22;11313;50.116;8.424;2023-10-19T14:02:48;22.30;56.80
22290;DHT22;11313;50.116;8.424;2023-10-19T14:05:15;22.30;56.80
22290;DHT22;11313;50.116;8.424;2023-10-19T14:07:40;22.30;56.80
22290;DHT22;11313;50.116;8.424;2023-10-19T14:10:07;22.30;56.80
22290;DHT22;11313;50.116;8.424;2023-10-19T14:12:33;22.30;56.80
22290;DHT22;11313;50.116;8.424;2023-10-19T14:14:59;22.30;56.80
22290;DHT22;11313;50.116;8.424;2023-10-19T14:17:24;22.30;56.80
22290;DHT22;11313;50.116;8.424;2023-10-19T14:19:50;22.30;56.80
22290;DHT22;11313;50.116;8.424;2023-10-19T14:22:16;22.30;56.80
22290;DHT22;11313;50.116;8.424;2023-10-19T14:24:42;22.30;56.80
22290;DHT22;11313;50.116;8.424;2023-10-19T14:27:08;22.30;56.90
22290;DHT22;11313;50.116;8.424;2023-10-19T14:29:34;22.30;56.90
22290;DHT22;11313;50.116;8.424;2023-10-19T14:32:00;22.30;56.80
22290;DHT22;11313;50.116;8.424;2023-10-19T14:34:25;22.30;56.90
22290;DHT22;11313;50.116;8.424;2023-10-19T14:36:54;22.30;56.90
22290;DHT22;11313;50.116;8.424;2023-10-19T14:39:20;22.30;56.90
22290;DHT22;11313;50.116;8.424;2023-10-19T14:41:46;22.30;56.80
22290;DHT22;11313;50.116;8.424;2023-10-19T14:44:12;22.30;56.90
22290;DHT22;11313;50.116;8.424;2023-10-19T14:46:37;22.30;56.80
22290;DHT22;11313;50.116;8.424;2023-10-19T14:49:03;22.30;56.80
22290;DHT22;11313;50.116;8.424;2023-10-19T14:51:28;22.30;56.90
22290;DHT22;11313;50.116;8.424;2023-10-19T14:53:54;22.30;56.90
22290;DHT22;11313;50.116;8.424;2023-10-19T14:56:20;22.30;56.90
22290;DHT22;11313;50.116;8.424;2023-10-19T14:58:46;22.30;56.90
22290;DHT22;11313;50.116;8.424;2023-10-19T15:01:12;22.30;56.90
22290;DHT22;11313;50.116;8.424;2023-10-19T15:03:42;22.30;56.90
22290;DHT22;11313;50.116;8.424;2023-10-19T15:06:08;22.30;56.90
22290;DHT22;11313;50.116;8.424;2023-10-19T15:08:34;22.30;56.90
22290;DHT22;11313;50.116;8.424;2023-10-19T15:10:59;22.30;56.90
22290;DHT22;11313;50.116;8.424;2023-10-19T15:13:25;22.30;56.90
22290;DHT22;11313;50.116;8.424;2023-10-19T15:15:51;22.30;56.80
22290;DHT22;11313;50.116;8.424;2023-10-19T15:18:16;22.30;56.90
22290;DHT22;11313;50.116;8.424;2023-10-19T15:20:43;22.30;56.80
22290;DHT22;11313;50.116;8.424;2023-10-19T15:23:09;22.30;56.90
22290;DHT22;11313;50.116;8.424;2023-10-19T15:25:36;22.30;56.90
22290;DHT22;11313;50.116;8.424;2023-10-19T15:28:02;22.30;57.50
22290;DHT22;11313;50.116;8.424;2023-10-19T15:30:28;22.30;56.90
22290;DHT22;11313;50.116;8.424;2023-10-19T15:32:54;22.30;56.90
22290;DHT22;11313;50.116;8.424;2023-10-19T15:35:20;22.30;56.90
22290;DHT22;11313;50.116;8.424;2023-10-19T15:37:50;22.30;56.90
22290;DHT22;11313;50.116;8.424;2023-10-19T15:40:16;22.30;56.90
22290;DHT22;11313;50.116;8.424;2023-10-19T15:42:43;22.30;56.90
22290;DHT22;11313;50.116;8.424;2023-10-19T15:45:12;22.30;56.90